createdAt,value
2022-07-26T00:01:03.106Z,57.78125
2022-07-26T00:02:02.296Z,57.29785156
2022-07-26T00:03:05.911Z,57.51757813
2022-07-26T00:04:05.880Z,57.56152344
2022-07-26T00:05:07.574Z,57.30273438
2022-07-26T00:06:10.755Z,57.84082031
2022-07-26T00:07:04.727Z,57.5625
2022-07-26T00:09:06.514Z,57.70214844
2022-07-26T00:10:08.461Z,58.00097656
2022-07-26T00:11:07.100Z,57.75488281
2022-07-26T00:11:07.179Z,57.75488281
2022-07-26T00:12:05.869Z,57.51660156
2022-07-26T00:13:00.151Z,57.64648438
2022-07-26T00:14:03.412Z,57.453125
2022-07-26T00:14:58.733Z,57.39355469
2022-07-26T00:15:56.207Z,57.50585938
2022-07-26T00:16:57.020Z,57.4453125
2022-07-26T00:17:52.409Z,57.77929688
2022-07-26T00:19:54.790Z,58.39746094
2022-07-26T00:20:47.501Z,58.62597656
2022-07-26T00:21:50.209Z,58.3359375
2022-07-26T00:22:44.769Z,58.12792969
2022-07-26T00:24:49.595Z,58.43652344
2022-07-26T00:26:51.506Z,58.08984375
2022-07-26T00:27:38.281Z,57.81738281
2022-07-26T00:29:48.415Z,58.08007813
2022-07-26T00:30:45.025Z,58.22460938
2022-07-26T00:31:47.958Z,57.94335938
2022-07-26T00:32:46.171Z,58.2265625
2022-07-26T00:33:48.696Z,58.58300781
2022-07-26T00:34:47.819Z,58.76367188
2022-07-26T00:35:46.190Z,58.37890625
2022-07-26T00:36:47.442Z,58.31640625
2022-07-26T00:37:44.175Z,58.55761719
2022-07-26T00:39:53.764Z,58.921875
2022-07-26T00:40:55.362Z,59.11523438
2022-07-26T00:41:57.080Z,58.98242188
2022-07-26T00:42:54.226Z,59.37402344
2022-07-26T00:43:54.332Z,59.07226563
2022-07-26T00:44:54.959Z,59.1953125
2022-07-26T00:45:55.558Z,59.56152344
2022-07-26T00:46:56.215Z,59.546875
2022-07-26T00:47:52.723Z,59.41992188
2022-07-26T00:49:03.948Z,59.59179688
2022-07-26T00:49:57.776Z,59.34765625
2022-07-26T00:50:56.740Z,60.06152344
2022-07-26T00:51:56.339Z,59.84277344
2022-07-26T00:53:04.445Z,59.62109375
2022-07-26T00:53:58.817Z,60.11914063
2022-07-26T00:55:02.613Z,59.72460938
2022-07-26T00:56:00.981Z,59.78125
2022-07-26T00:57:14.189Z,60.09277344
2022-07-26T00:59:48.895Z,59.28320313
2022-07-26T01:00:49.532Z,59.33984375
2022-07-26T01:01:49.038Z,59.41308594
2022-07-26T01:02:44.468Z,58.98144531
2022-07-26T01:04:41.301Z,59.45410156
2022-07-26T01:05:41.592Z,59.12792969
2022-07-26T01:06:40.780Z,59.3984375
2022-07-26T01:07:42.276Z,59.57714844
2022-07-26T01:08:36.596Z,59.60839844
2022-07-26T01:09:35.855Z,59.68457031
2022-07-26T01:10:34.503Z,59.83105469
2022-07-26T01:11:39.897Z,60.19824219
2022-07-26T01:12:34.169Z,59.9921875
2022-07-26T01:14:32.136Z,60.2109375
2022-07-26T01:15:32.269Z,60.4140625
2022-07-26T01:16:30.508Z,60.44433594
2022-07-26T01:17:26.732Z,60.33886719
2022-07-26T01:19:28.606Z,60.50390625
2022-07-26T01:20:23.885Z,60.60449219
2022-07-26T01:21:29.008Z,60.80859375
2022-07-26T01:22:23.282Z,61.05957031
2022-07-26T01:24:17.052Z,60.72851563
2022-07-26T01:25:21.260Z,60.69042969
2022-07-26T01:26:21.591Z,60.80371094
2022-07-26T01:27:17.759Z,60.68652344
2022-07-26T01:29:12.590Z,60.8046875
2022-07-26T01:30:17.302Z,60.92773438
2022-07-26T01:31:18.239Z,60.99511719
2022-07-26T01:32:14.139Z,60.72753906
2022-07-26T01:34:09.182Z,61.0625
2022-07-26T01:35:08.535Z,60.92285156
2022-07-26T01:36:08.646Z,60.45996094
2022-07-26T01:37:54.685Z,60.31835938
2022-07-26T01:38:35.115Z,60.29199219
2022-07-26T01:39:34.160Z,60.40917969
2022-07-26T01:40:35.688Z,60.61914063
2022-07-26T01:41:38.663Z,60.35351563
2022-07-26T01:42:16.171Z,60.45605469
2022-07-26T01:43:14.229Z,60.60546875
2022-07-26T01:44:17.517Z,60.6015625
2022-07-26T01:45:12.915Z,60.72460938
2022-07-26T01:46:17.067Z,60.8515625
2022-07-26T01:47:15.177Z,60.78417969
2022-07-26T01:49:08.273Z,60.921875
2022-07-26T01:50:08.114Z,61.35449219
2022-07-26T01:51:03.330Z,61.09863281
2022-07-26T01:52:02.495Z,61.32714844
2022-07-26T01:53:00.675Z,61.05078125
2022-07-26T01:54:04.840Z,61.15136719
2022-07-26T01:55:00.295Z,61.03613281
2022-07-26T01:56:05.621Z,61.16015625
2022-07-26T01:57:05.839Z,61.14355469
2022-07-26T01:58:12.624Z,61.48632813
2022-07-26T01:59:08.517Z,61.37109375
2022-07-26T02:00:05.507Z,61.37890625
2022-07-26T02:01:04.439Z,61.48242188
2022-07-26T02:02:01.199Z,61.58203125
2022-07-26T02:03:02.930Z,61.60546875
2022-07-26T02:04:56.552Z,61.734375
2022-07-26T02:05:51.974Z,61.7890625
2022-07-26T02:06:50.982Z,61.82226563
2022-07-26T02:07:46.460Z,61.43066406
2022-07-26T02:09:23.645Z,61.359375
2022-07-26T02:11:11.132Z,60.16601563
2022-07-26T02:11:49.526Z,59.7734375
2022-07-26T02:12:48.510Z,59.62207031
2022-07-26T02:14:46.033Z,59.85253906
2022-07-26T02:15:41.220Z,60.32519531
2022-07-26T02:16:39.553Z,60.6640625
2022-07-26T02:17:41.925Z,60.40527344
2022-07-26T02:18:42.203Z,60.734375
2022-07-26T02:19:42.336Z,60.98144531
2022-07-26T02:20:41.308Z,61.0234375
2022-07-26T02:21:39.486Z,61.39648438
2022-07-26T02:22:54.226Z,61.21875
2022-07-26T02:23:52.402Z,61.50390625
2022-07-26T02:24:53.880Z,61.68457031
2022-07-26T02:25:46.384Z,61.75097656
2022-07-26T02:26:44.980Z,61.93457031
2022-07-26T02:27:43.472Z,61.50976563
2022-07-26T02:29:38.970Z,61.80566406
2022-07-26T02:30:30.073Z,61.54589844
2022-07-26T02:31:34.136Z,61.77148438
2022-07-26T02:32:25.742Z,61.8046875
2022-07-26T02:33:30.203Z,61.54296875
2022-07-26T02:34:32.204Z,61.66699219
2022-07-26T02:34:34.034Z,61.66699219
2022-07-26T02:35:31.627Z,61.57421875
2022-07-26T02:36:25.883Z,61.71386719
2022-07-26T02:37:24.115Z,61.47363281
2022-07-26T02:39:43.804Z,61.80273438
2022-07-26T02:40:25.186Z,61.98632813
2022-07-26T02:41:25.712Z,61.68945313
2022-07-26T02:42:26.333Z,61.66503906
2022-07-26T02:44:26.652Z,61.73925781
2022-07-26T02:45:27.573Z,62.02734375
2022-07-26T02:46:27.049Z,62.19628906
2022-07-26T02:47:27.556Z,62.20898438
2022-07-26T02:48:25.864Z,62.00195313
2022-07-26T02:49:28.712Z,62.14746094
2022-07-26T02:50:26.710Z,62.18066406
2022-07-26T02:51:27.217Z,62.06738281
2022-07-26T02:52:27.734Z,62.01855469
2022-07-26T02:54:21.488Z,62.28222656
2022-07-26T02:55:26.121Z,62.39257813
2022-07-26T02:56:20.393Z,62.45214844
2022-07-26T02:57:22.595Z,62.41308594
2022-07-26T02:59:19.138Z,62.34863281
2022-07-26T03:00:17.381Z,62.21386719
2022-07-26T03:01:19.054Z,62.31347656
2022-07-26T03:02:17.205Z,62.70214844
2022-07-26T03:04:22.092Z,62.5078125
2022-07-26T03:05:22.804Z,62.48339844
2022-07-26T03:06:24.243Z,62.5390625
2022-07-26T03:07:26.680Z,62.71972656
2022-07-26T03:09:25.758Z,62.91796875
2022-07-26T03:10:21.686Z,63.00976563
2022-07-26T03:11:24.785Z,62.96289063
2022-07-26T03:12:19.075Z,63.19140625
2022-07-26T03:14:19.607Z,63.16992188
2022-07-26T03:15:18.882Z,63.10058594
2022-07-26T03:16:17.006Z,63.16699219
2022-07-26T03:17:14.249Z,63.17871094
2022-07-26T03:18:12.364Z,63.35351563
2022-07-26T03:20:14.940Z,63.41113281
2022-07-26T03:21:16.802Z,63.21679688
2022-07-26T03:22:17.106Z,63.39941406
2022-07-26T03:23:17.493Z,63.34375
2022-07-26T03:24:15.478Z,63.25097656
2022-07-26T03:25:16.102Z,63.375
2022-07-26T03:26:40.861Z,63.66113281
2022-07-26T03:27:21.721Z,63.77636719
2022-07-26T03:28:19.657Z,63.49511719
2022-07-26T03:29:21.865Z,63.28710938
2022-07-26T03:30:25.196Z,63.24902344
2022-07-26T03:31:19.449Z,63.28320313
2022-07-26T03:32:18.642Z,63.29589844
2022-07-26T03:33:22.916Z,63.46875
2022-07-26T03:34:21.607Z,63.49023438
2022-07-26T03:35:20.679Z,63.5078125
2022-07-26T03:36:21.686Z,63.5625
2022-07-26T03:37:19.673Z,63.64257813
2022-07-26T03:38:23.382Z,63.83886719
2022-07-26T03:39:25.461Z,63.734375
2022-07-26T03:40:24.955Z,63.60644531
2022-07-26T03:41:27.395Z,64.13574219
2022-07-26T03:42:30.545Z,63.84863281
2022-07-26T03:43:25.729Z,63.79101563
2022-07-26T03:44:32.035Z,63.85839844
2022-07-26T03:45:27.861Z,63.85839844
2022-07-26T03:46:29.441Z,64.00585938
2022-07-26T03:47:32.857Z,64.07226563
2022-07-26T03:48:34.700Z,64.07617188
2022-07-26T03:49:35.129Z,64.24414063
2022-07-26T03:50:33.914Z,63.95507813
2022-07-26T03:51:30.164Z,64.26464844
2022-07-26T03:52:30.940Z,64.32128906
2022-07-26T03:54:35.159Z,64.1640625
2022-07-26T03:55:29.478Z,64.30957031
2022-07-26T03:56:29.711Z,64.7578125
2022-07-26T03:57:28.417Z,64.82519531
2022-07-26T03:59:27.283Z,65.06542969
2022-07-26T04:00:29.590Z,64.93847656
2022-07-26T04:01:32.521Z,65.36523438
2022-07-26T04:02:35.534Z,65.33789063
2022-07-26T04:05:03.426Z,65.21972656
2022-07-26T04:05:49.018Z,65.15429688
2022-07-26T04:05:49.039Z,65.15429688
2022-07-26T04:06:45.112Z,65.18164063
2022-07-26T04:07:40.099Z,64.74511719
2022-07-26T04:09:37.710Z,64.68652344
2022-07-26T04:10:32.635Z,65.15234375
2022-07-26T04:11:32.720Z,65.18359375
2022-07-26T04:12:30.231Z,65.31933594
2022-07-26T04:14:27.278Z,65.49902344
2022-07-26T04:15:33.562Z,65.58984375
2022-07-26T04:16:26.353Z,65.67578125
2022-07-26T04:17:27.847Z,65.77050781
2022-07-26T04:19:26.162Z,65.81542969
2022-07-26T04:20:20.928Z,65.83691406
2022-07-26T04:21:20.597Z,65.54003906
2022-07-26T04:22:16.879Z,65.35839844
2022-07-26T04:23:19.079Z,65.40917969
2022-07-26T04:25:13.055Z,65.90527344
2022-07-26T04:26:13.674Z,65.89257813
2022-07-26T04:27:11.845Z,65.92480469
2022-07-26T04:28:13.617Z,65.95800781
2022-07-26T04:30:15.149Z,65.70410156
2022-07-26T04:31:11.381Z,65.87597656
2022-07-26T04:32:10.426Z,66.01367188
2022-07-26T04:33:20.766Z,66.33496094
2022-07-26T04:35:17.046Z,66.49121094
2022-07-26T04:36:16.423Z,67.18847656
2022-07-26T04:37:13.610Z,67.51855469
2022-07-26T04:38:15.929Z,67.43945313
2022-07-26T04:40:12.940Z,68.05566406
2022-07-26T04:41:11.168Z,67.98632813
2022-07-26T04:42:11.415Z,68.25976563
2022-07-26T04:43:07.713Z,68.28417969
2022-07-26T04:44:12.474Z,68.54980469
2022-07-26T04:45:08.380Z,68.73046875
2022-07-26T04:46:07.166Z,68.87792969
2022-07-26T04:47:08.076Z,68.01855469
2022-07-26T04:49:04.971Z,68.09082031
2022-07-26T04:49:44.556Z,68.09570313
2022-07-26T04:50:43.383Z,68.19921875
2022-07-26T04:51:43.962Z,68.43847656
2022-07-26T04:52:43.432Z,68.29394531
2022-07-26T04:54:38.725Z,68.55957031
2022-07-26T04:55:38.828Z,69.0234375
2022-07-26T04:56:34.462Z,69.19042969
2022-07-26T04:57:35.318Z,69.2109375
2022-07-26T04:58:32.371Z,69.17773438
2022-07-26T04:59:33.207Z,69.47460938
2022-07-26T05:00:27.629Z,69.51757813
2022-07-26T05:01:29.311Z,69.67382813
2022-07-26T05:02:23.721Z,69.34863281
2022-07-26T05:03:28.375Z,69.46484375
2022-07-26T05:04:20.915Z,69.36132813
2022-07-26T05:05:22.952Z,69.92285156
2022-07-26T05:06:27.401Z,69.58789063
2022-07-26T05:07:27.859Z,69.75390625
2022-07-26T05:08:22.192Z,69.85742188
2022-07-26T05:10:20.454Z,69.56835938
2022-07-26T05:11:19.913Z,69.70507813
2022-07-26T05:12:14.275Z,69.52050781
2022-07-26T05:13:13.347Z,69.453125
2022-07-26T05:15:15.793Z,69.99609375
2022-07-26T05:16:12.216Z,70.24707031
2022-07-26T05:17:10.879Z,70.05175781
2022-07-26T05:18:07.060Z,69.85742188
2022-07-26T05:19:04.617Z,69.93164063
2022-07-26T05:20:03.256Z,69.93066406
2022-07-26T05:20:59.053Z,70.36816406
2022-07-26T05:21:54.260Z,70.08203125
2022-07-26T05:22:55.959Z,70.16113281
2022-07-26T05:24:51.529Z,69.91503906
2022-07-26T05:25:48.639Z,69.52050781
2022-07-26T05:26:45.690Z,69.76269531
2022-07-26T05:27:40.084Z,69.82324219
2022-07-26T05:28:40.459Z,69.73535156
2022-07-26T05:29:37.339Z,69.99804688
2022-07-26T05:30:36.531Z,69.85742188
2022-07-26T05:31:34.138Z,69.92578125
2022-07-26T05:32:33.640Z,70.02539063
2022-07-26T05:34:30.374Z,70.19824219
2022-07-26T05:35:31.882Z,70.2421875
2022-07-26T05:37:06.152Z,70.32421875
2022-07-26T05:37:47.057Z,70.09765625
2022-07-26T05:39:45.358Z,69.42871094
2022-07-26T05:40:40.644Z,69.51660156
2022-07-26T05:41:40.370Z,69.54785156
2022-07-26T05:42:37.473Z,69.85351563
2022-07-26T05:44:31.679Z,69.89648438
2022-07-26T05:45:31.775Z,70.13378906
2022-07-26T05:46:26.951Z,69.66699219
2022-07-26T05:47:25.611Z,69.99609375
2022-07-26T05:48:23.931Z,69.91796875
2022-07-26T05:50:20.570Z,69.85742188
2022-07-26T05:51:15.291Z,70.0625
2022-07-26T05:52:17.517Z,70.03613281
2022-07-26T05:53:10.154Z,70.19726563
2022-07-26T05:55:05.349Z,70.09960938
2022-07-26T05:56:09.924Z,70.32714844
2022-07-26T05:57:02.458Z,70.23535156
2022-07-26T05:58:05.370Z,70.03027344
2022-07-26T05:59:58.201Z,70.15917969
2022-07-26T06:00:53.619Z,70.30859375
2022-07-26T06:01:53.439Z,70.14941406
2022-07-26T06:02:49.362Z,70.05664063
2022-07-26T06:04:47.533Z,70.08105469
2022-07-26T06:05:45.780Z,70.25292969
2022-07-26T06:06:41.974Z,70.10253906
2022-07-26T06:07:44.338Z,70.03515625
2022-07-26T06:08:36.581Z,70.19921875
2022-07-26T06:09:38.721Z,70.44335938
2022-07-26T06:10:31.226Z,70.23535156
2022-07-26T06:11:33.744Z,70.33007813
2022-07-26T06:12:27.042Z,70.47753906
2022-07-26T06:13:28.481Z,70.25
2022-07-26T06:15:18.852Z,70.4921875
2022-07-26T06:16:42.584Z,70.28222656
2022-07-26T06:17:25.749Z,70.51464844
2022-07-26T06:18:24.665Z,70.0859375
2022-07-26T06:20:21.236Z,70.11035156
2022-07-26T06:21:20.960Z,70.12109375
2022-07-26T06:22:17.142Z,70.11328125
2022-07-26T06:23:17.010Z,70.06445313
2022-07-26T06:24:12.937Z,70.06738281
2022-07-26T06:25:13.806Z,70.26367188
2022-07-26T06:26:09.280Z,70.09375
2022-07-26T06:27:14.736Z,70.29785156
2022-07-26T06:28:07.595Z,70.03027344
2022-07-26T06:30:03.359Z,70.01269531
2022-07-26T06:31:03.695Z,69.82910156
2022-07-26T06:31:59.465Z,69.79785156
2022-07-26T06:33:01.281Z,69.796875
2022-07-26T06:34:55.325Z,69.74121094
2022-07-26T06:35:56.195Z,69.71972656
2022-07-26T06:36:55.215Z,69.67382813
2022-07-26T06:37:52.591Z,70.05273438
2022-07-26T06:39:51.559Z,69.73046875
2022-07-26T06:40:51.812Z,69.62988281
2022-07-26T06:41:48.998Z,69.64160156
2022-07-26T06:42:48.973Z,69.50585938
2022-07-26T06:43:44.683Z,69.74902344
2022-07-26T06:44:42.793Z,69.51269531
2022-07-26T06:45:46.774Z,69.37792969
2022-07-26T06:46:42.266Z,69.49511719
2022-07-26T06:47:42.845Z,69.30664063
2022-07-26T06:49:39.813Z,69.85351563
2022-07-26T06:50:35.402Z,69.59082031
2022-07-26T06:51:38.513Z,69.17285156
2022-07-26T06:52:32.704Z,69.37792969
2022-07-26T06:53:33.052Z,69.359375
2022-07-26T06:54:29.601Z,69.43457031
2022-07-26T06:55:30.062Z,69.06738281
2022-07-26T06:57:08.070Z,68.94921875
2022-07-26T06:57:50.098Z,68.98339844
2022-07-26T06:59:45.966Z,68.74121094
2022-07-26T07:00:41.322Z,68.4921875
2022-07-26T07:01:58.459Z,68.59375
2022-07-26T07:01:58.500Z,68.59375
2022-07-26T07:01:59.328Z,68.59375
2022-07-26T07:02:41.436Z,68.73535156
2022-07-26T07:04:36.201Z,68.35058594
2022-07-26T07:05:31.538Z,68.11328125
2022-07-26T07:06:30.749Z,67.72558594
2022-07-26T07:07:25.561Z,67.5625
2022-07-26T07:08:25.503Z,67.89355469
2022-07-26T07:10:20.696Z,68.4375
2022-07-26T07:11:18.066Z,68.21875
2022-07-26T07:12:17.470Z,67.83105469
2022-07-26T07:13:12.860Z,67.89160156
2022-07-26T07:15:08.139Z,68.18261719
2022-07-26T07:16:08.324Z,68.40429688
2022-07-26T07:17:03.773Z,68.33886719
2022-07-26T07:17:13.045Z,68.33886719
2022-07-26T07:17:17.265Z,68.33886719
2022-07-26T07:18:04.642Z,68.35742188
2022-07-26T07:20:02.417Z,68.20019531
2022-07-26T07:20:55.757Z,68.11230469
2022-07-26T07:21:58.323Z,67.79296875
2022-07-26T07:22:50.918Z,67.84082031
2022-07-26T07:23:48.985Z,67.07128906
2022-07-26T07:24:48.943Z,67.41601563
2022-07-26T07:25:44.861Z,67.64746094
2022-07-26T07:26:45.027Z,67.32714844
2022-07-26T07:27:40.434Z,67.22460938
2022-07-26T07:28:42.933Z,67.48242188
2022-07-26T07:29:35.608Z,67.32226563
2022-07-26T07:30:34.182Z,67.359375
2022-07-26T07:31:47.846Z,67.29199219
2022-07-26T07:31:48.361Z,67.29199219
2022-07-26T07:31:48.605Z,67.29199219
2022-07-26T07:32:34.843Z,67.14941406
2022-07-26T07:34:44.571Z,66.47070313
2022-07-26T07:35:24.032Z,66.1953125
2022-07-26T07:36:24.309Z,65.75976563
2022-07-26T07:37:20.262Z,65.86132813
2022-07-26T07:38:19.371Z,65.89160156
2022-07-26T07:40:15.820Z,65.91601563
2022-07-26T07:41:11.667Z,66.63183594
2022-07-26T07:42:19.605Z,66.58691406
2022-07-26T07:44:40.799Z,66.34765625
2022-07-26T07:45:21.168Z,66.16796875
2022-07-26T07:46:21.686Z,65.69335938
2022-07-26T07:47:17.344Z,65.65527344
2022-07-26T07:48:18.175Z,65.94921875
2022-07-26T07:49:14.528Z,65.96484375
2022-07-26T07:50:15.107Z,65.66992188
2022-07-26T07:51:13.418Z,65.2109375
2022-07-26T07:52:09.079Z,65.5078125
2022-07-26T07:53:09.598Z,65.2265625
2022-07-26T07:54:06.084Z,65.04980469
2022-07-26T07:55:36.786Z,64.64746094
2022-07-26T07:55:36.947Z,64.64746094
2022-07-26T07:56:04.691Z,64.66796875
2022-07-26T07:57:00.126Z,64.26074219
2022-07-26T07:58:01.310Z,64.30664063
2022-07-26T07:58:56.609Z,64.28125
2022-07-26T07:59:56.458Z,64.015625
2022-07-26T08:00:51.893Z,64.17871094
2022-07-26T08:01:52.334Z,64.39550781
2022-07-26T08:02:47.862Z,64.52148438
2022-07-26T08:04:44.098Z,64.49609375
2022-07-26T08:05:44.804Z,64.47851563
2022-07-26T08:06:41.444Z,64.26171875
2022-07-26T08:07:43.414Z,64.05664063
2022-07-26T08:08:37.739Z,63.56054688
2022-07-26T08:09:36.615Z,63.34375
2022-07-26T08:09:42.872Z,63.34375
2022-07-26T08:10:35.213Z,63.1875
2022-07-26T08:10:41.794Z,63.1875
2022-07-26T08:10:51.729Z,63.1875
2022-07-26T08:11:35.380Z,62.90332031
2022-07-26T08:12:31.537Z,63.28417969
2022-07-26T08:14:58.457Z,62.93945313
2022-07-26T08:15:24.658Z,62.47949219
2022-07-26T08:16:23.041Z,62.55371094
2022-07-26T08:17:23.677Z,62.00585938
2022-07-26T08:17:52.222Z,62.07910156
2022-07-26T08:17:54.567Z,62.07910156
2022-07-26T08:19:47.122Z,61.73828125
2022-07-26T08:20:42.386Z,61.56640625
2022-07-26T08:21:45.421Z,61.91308594
2022-07-26T08:22:38.667Z,62.20507813
2022-07-26T08:23:38.871Z,62.0625
2022-07-26T08:24:34.103Z,62.64453125
2022-07-26T08:25:33.985Z,62.8828125
2022-07-26T08:26:30.093Z,61.65429688
2022-07-26T08:27:28.848Z,61.45507813
2022-07-26T08:28:46.300Z,61.58789063
2022-07-26T08:28:58.519Z,61.58789063
2022-07-26T08:28:59.922Z,61.58789063
2022-07-26T08:30:24.957Z,61.46679688
2022-07-26T08:31:17.784Z,61.50976563
2022-07-26T08:32:18.602Z,61.83691406
2022-07-26T08:33:14.156Z,62.1171875
2022-07-26T08:35:17.037Z,62.38769531
2022-07-26T08:35:17.358Z,62.38769531
2022-07-26T08:36:11.528Z,62.36816406
2022-07-26T08:37:17.051Z,62.05957031
2022-07-26T08:37:17.446Z,62.05957031
2022-07-26T08:37:18.154Z,62.05957031
2022-07-26T08:38:08.218Z,61.85546875
2022-07-26T08:40:03.005Z,61.73730469
2022-07-26T08:40:58.184Z,61.78222656
2022-07-26T08:42:00.035Z,61.90722656
2022-07-26T08:42:52.956Z,61.6171875
2022-07-26T08:43:53.770Z,61.69238281
2022-07-26T08:44:47.523Z,61.41503906
2022-07-26T08:45:54.611Z,61.65917969
2022-07-26T08:46:42.508Z,61.53125
2022-07-26T08:48:00.722Z,61.3203125
2022-07-26T08:48:14.951Z,61.3203125
2022-07-26T08:48:16.070Z,61.3203125
2022-07-26T08:48:40.046Z,61.640625
2022-07-26T08:49:35.331Z,61.5078125
2022-07-26T08:50:34.576Z,61.66699219
2022-07-26T08:51:29.717Z,61.79003906
2022-07-26T08:52:31.296Z,62.17773438
2022-07-26T08:53:26.705Z,62.12402344
2022-07-26T08:54:25.309Z,61.89941406
2022-07-26T08:55:29.647Z,61.73144531
2022-07-26T08:55:50.311Z,61.73144531
2022-07-26T08:56:24.090Z,61.59472656
2022-07-26T08:57:15.987Z,61.48046875
2022-07-26T08:58:16.381Z,61.7421875
2022-07-26T08:59:17.172Z,62.08398438
2022-07-26T08:59:20.824Z,62.08398438
2022-07-26T08:59:22.615Z,62.08398438
2022-07-26T09:00:11.860Z,61.87792969
2022-07-26T09:01:06.419Z,61.81640625
2022-07-26T09:02:05.759Z,61.890625
2022-07-26T09:03:01.024Z,62.35839844
2022-07-26T09:04:56.945Z,62.63085938
2022-07-26T09:05:58.971Z,62.3828125
2022-07-26T09:06:51.645Z,62.3203125
2022-07-26T09:07:52.874Z,62.47753906
2022-07-26T09:09:44.112Z,62.9375
2022-07-26T09:11:36.044Z,62.65136719
2022-07-26T09:12:01.698Z,62.36132813
2022-07-26T09:13:00.715Z,62.09277344
2022-07-26T09:14:42.440Z,61.73632813
2022-07-26T09:15:22.396Z,61.87109375
2022-07-26T09:16:19.895Z,61.65527344
2022-07-26T09:17:19.919Z,61.43554688
2022-07-26T09:18:15.078Z,61.23828125
2022-07-26T09:19:15.158Z,60.640625
2022-07-26T09:20:12.063Z,60.66992188
2022-07-26T09:21:09.478Z,60.70117188
2022-07-26T09:22:09.900Z,60.68457031
2022-07-26T09:22:10.485Z,60.68457031
2022-07-26T09:23:04.187Z,61.44238281
2022-07-26T09:24:59.621Z,63.54785156
2022-07-26T09:25:54.941Z,64.33789063
2022-07-26T09:26:53.957Z,63.71972656
2022-07-26T09:27:50.130Z,64.0390625
2022-07-26T09:29:47.585Z,65.15332031
2022-07-26T09:30:45.607Z,65.59667969
2022-07-26T09:31:40.780Z,66.08691406
2022-07-26T09:32:39.107Z,66.69238281
2022-07-26T09:33:33.665Z,66.46972656
2022-07-26T09:34:33.387Z,66.8125
2022-07-26T09:35:50.521Z,66.71777344
2022-07-26T09:35:51.224Z,66.71777344
2022-07-26T09:36:25.806Z,66.56738281
2022-07-26T09:37:26.012Z,66.40917969
2022-07-26T09:38:21.362Z,65.96679688
2022-07-26T09:40:16.997Z,66.5859375
2022-07-26T09:41:19.769Z,66.60449219
2022-07-26T09:42:28.478Z,66.28710938
2022-07-26T09:42:28.635Z,66.28710938
2022-07-26T09:42:28.872Z,66.28710938
2022-07-26T09:43:13.746Z,65.77636719
2022-07-26T09:44:10.279Z,66.99902344
2022-07-26T09:45:09.758Z,67.89648438
2022-07-26T09:46:05.405Z,67.0703125
2022-07-26T09:47:07.910Z,66.66015625
2022-07-26T09:48:01.140Z,66.23632813
2022-07-26T09:49:59.856Z,65.13671875
2022-07-26T09:50:55.316Z,65.06640625
2022-07-26T09:51:58.442Z,65.18847656
2022-07-26T09:52:51.335Z,65.34179688
2022-07-26T09:54:47.286Z,65.20996094
2022-07-26T09:55:50.349Z,65.45800781
2022-07-26T09:56:43.639Z,65.10742188
2022-07-26T09:57:46.557Z,64.22460938
2022-07-26T09:58:40.713Z,63.12597656
2022-07-26T09:59:40.570Z,63.19726563
2022-07-26T10:00:36.347Z,62.71875
2022-07-26T10:01:39.999Z,62.39941406
2022-07-26T10:03:45.401Z,61.38867188
2022-07-26T10:04:44.460Z,61.54492188
2022-07-26T10:05:44.172Z,61.26171875
2022-07-26T10:06:40.005Z,61.265625
2022-07-26T10:07:41.118Z,60.74609375
2022-07-26T10:08:36.745Z,61.2890625
2022-07-26T10:09:37.607Z,61.1875
2022-07-26T10:10:33.268Z,59.08203125
2022-07-26T10:11:33.960Z,60.28710938
2022-07-26T10:12:30.663Z,59.87109375
2022-07-26T10:13:30.571Z,60.9609375
2022-07-26T10:14:31.190Z,60.625
2022-07-26T10:15:27.066Z,60.27148438
2022-07-26T10:16:22.506Z,59.47070313
2022-07-26T10:17:29.073Z,59.47265625
2022-07-26T10:17:31.074Z,59.47265625
2022-07-26T10:18:19.811Z,59.87988281
2022-07-26T10:20:17.613Z,59.50976563
2022-07-26T10:21:15.578Z,59.625
2022-07-26T10:22:10.851Z,58.74316406
2022-07-26T10:23:08.349Z,58.63769531
2022-07-26T10:24:11.127Z,59.00097656
2022-07-26T10:25:03.862Z,58.74414063
2022-07-26T10:26:03.534Z,58.48535156
2022-07-26T10:26:59.121Z,58.3203125
2022-07-26T10:27:58.992Z,58.46679688
2022-07-26T10:29:57.856Z,59.19238281
2022-07-26T10:30:50.546Z,59.29589844
2022-07-26T10:31:49.605Z,59.47070313
2022-07-26T10:32:50.684Z,59.1796875
2022-07-26T10:33:43.341Z,59.67382813
2022-07-26T10:35:38.674Z,59.58300781
2022-07-26T10:36:38.699Z,59.6171875
2022-07-26T10:37:34.177Z,60.73925781
2022-07-26T10:38:34.229Z,60.94140625
2022-07-26T10:40:30.035Z,59.49316406
2022-07-26T10:41:25.357Z,60.06542969
2022-07-26T10:42:23.129Z,59.828125
2022-07-26T10:43:40.097Z,59.71679688
2022-07-26T10:43:44.487Z,59.71679688
2022-07-26T10:44:17.013Z,59.5625
2022-07-26T10:45:16.731Z,59.390625
2022-07-26T10:46:12.140Z,59.51171875
2022-07-26T10:47:14.511Z,59.91015625
2022-07-26T10:48:08.004Z,61.3984375
2022-07-26T10:49:07.254Z,60.43847656
2022-07-26T10:50:02.064Z,61.45019531
2022-07-26T10:51:06.348Z,61.28710938
2022-07-26T10:52:02.356Z,61.9765625
2022-07-26T10:53:39.929Z,61.27832031
2022-07-26T10:54:24.350Z,61.54492188
2022-07-26T10:55:19.375Z,61.54980469
2022-07-26T10:56:14.765Z,61.69824219
2022-07-26T10:57:14.181Z,61.55175781
2022-07-26T10:58:08.760Z,61.75585938
2022-07-26T10:59:09.752Z,62.17773438
2022-07-26T11:00:05.479Z,61.953125
2022-07-26T11:01:07.056Z,61.81054688
2022-07-26T11:02:02.385Z,63.26269531
2022-07-26T11:03:01.090Z,61.98632813
2022-07-26T11:04:57.782Z,61.73046875
2022-07-26T11:05:50.972Z,61.7734375
2022-07-26T11:06:50.008Z,61.76367188
2022-07-26T11:07:45.394Z,61.88671875
2022-07-26T11:08:48.172Z,61.89746094
2022-07-26T11:10:40.114Z,63.80273438
2022-07-26T11:11:34.806Z,63.72949219
2022-07-26T11:12:34.161Z,63.08984375
2022-07-26T11:13:29.403Z,63.64355469
2022-07-26T11:15:07.284Z,62.17675781
2022-07-26T11:15:47.029Z,61.92675781
2022-07-26T11:16:45.200Z,62.76171875
2022-07-26T11:17:44.689Z,63.14257813
2022-07-26T11:18:39.964Z,62.93359375
2022-07-26T11:19:40.483Z,62.72558594
2022-07-26T11:20:36.678Z,63.76269531
2022-07-26T11:21:36.372Z,63.31347656
2022-07-26T11:22:34.340Z,63.17480469
2022-07-26T11:23:33.913Z,63.04882813
2022-07-26T11:25:33.194Z,64.63378906
2022-07-26T11:26:26.593Z,64.30273438
2022-07-26T11:27:26.641Z,65.3203125
2022-07-26T11:28:22.798Z,64.53222656
2022-07-26T11:30:24.862Z,64.23632813
2022-07-26T11:31:20.183Z,63.26953125
2022-07-26T11:32:18.989Z,63.06933594
2022-07-26T11:33:14.491Z,62.60742188
2022-07-26T11:35:10.293Z,62.08886719
2022-07-26T11:36:10.520Z,63.05371094